createdAt,value
2023-01-20T00:00:18.197Z,68.97
2023-01-20T00:03:06.941Z,69.95
2023-01-20T00:05:59.193Z,70.22
2023-01-20T00:08:47.984Z,68.64
2023-01-20T00:11:30.181Z,65.30
2023-01-20T00:14:18.982Z,65.74
2023-01-20T00:17:07.927Z,67.42
2023-01-20T00:19:50.042Z,65.91
2023-01-20T00:22:38.874Z,65.39
2023-01-20T00:25:22.587Z,66.00
2023-01-20T00:28:11.972Z,63.82
2023-01-20T00:31:00.278Z,63.07
2023-01-20T00:33:41.938Z,63.89
2023-01-20T00:36:41.927Z,63.59
2023-01-20T00:39:24.167Z,61.54
2023-01-20T00:42:12.936Z,63.57
2023-01-20T00:45:02.215Z,59.64
2023-01-20T00:47:44.236Z,60.74
2023-01-20T00:50:33.343Z,62.20
2023-01-20T00:53:15.924Z,60.93
2023-01-20T00:56:04.952Z,61.18
2023-01-20T00:58:50.229Z,60.15
2023-01-20T01:01:38.993Z,62.46
2023-01-20T01:04:21.170Z,59.16
2023-01-20T01:07:09.924Z,59.17
2023-01-20T01:09:52.763Z,59.63
2023-01-20T01:12:41.933Z,60.59
2023-01-20T01:15:24.199Z,60.55
2023-01-20T01:18:12.939Z,60.87
2023-01-20T01:20:55.256Z,58.30
2023-01-20T01:23:43.941Z,58.91
2023-01-20T01:26:26.199Z,60.36
2023-01-20T01:29:14.975Z,58.08
2023-01-20T01:31:57.230Z,60.58
2023-01-20T01:34:45.855Z,58.94
2023-01-20T01:37:28.194Z,58.99
2023-01-20T01:40:17.859Z,58.53
2023-01-20T01:43:00.306Z,58.44
2023-01-20T01:45:49.012Z,58.95
2023-01-20T01:48:53.893Z,59.57
2023-01-20T01:51:42.608Z,58.29
2023-01-20T01:54:42.303Z,59.44
2023-01-20T01:57:37.809Z,59.17
2023-01-20T02:00:26.861Z,59.76
2023-01-20T02:03:16.002Z,60.33
2023-01-20T02:06:05.129Z,59.70
2023-01-20T02:08:47.777Z,58.90
2023-01-20T02:11:39.191Z,60.47
2023-01-20T02:14:20.952Z,59.09
2023-01-20T02:17:23.425Z,58.90
2023-01-20T02:20:17.013Z,60.34
2023-01-20T02:23:17.250Z,62.49
2023-01-20T02:26:25.002Z,61.62
2023-01-20T02:29:41.224Z,61.77
2023-01-20T02:32:27.812Z,62.51
2023-01-20T02:35:28.911Z,60.82
2023-01-20T02:38:25.945Z,60.71
2023-01-20T02:41:24.885Z,60.69
2023-01-20T02:44:32.829Z,61.42
2023-01-20T02:47:33.046Z,59.81
2023-01-20T02:50:49.046Z,61.04
2023-01-20T02:53:56.194Z,61.33
2023-01-20T02:56:39.818Z,60.87
2023-01-20T02:59:34.230Z,61.88
2023-01-20T03:02:27.819Z,60.47
2023-01-20T03:05:16.698Z,61.25
2023-01-20T03:08:08.754Z,60.90
2023-01-20T03:10:54.415Z,61.66
2023-01-20T03:14:23.913Z,61.79
2023-01-20T03:17:12.854Z,62.36
2023-01-20T03:19:55.168Z,61.53
2023-01-20T03:22:43.804Z,61.33
2023-01-20T03:25:28.150Z,61.80
2023-01-20T03:28:16.781Z,62.57
2023-01-20T03:31:01.266Z,61.84
2023-01-20T03:33:50.867Z,61.94
2023-01-20T03:36:42.918Z,61.51
2023-01-20T03:39:39.871Z,61.31
2023-01-20T03:42:39.230Z,60.87
2023-01-20T03:45:53.877Z,61.17
2023-01-20T03:49:04.889Z,62.09
2023-01-20T03:52:09.178Z,61.63
2023-01-20T03:55:05.940Z,61.40
2023-01-20T03:58:07.315Z,61.38
2023-01-20T04:00:53.917Z,61.31
2023-01-20T04:03:48.166Z,61.92
2023-01-20T04:06:33.870Z,61.52
2023-01-20T04:09:32.355Z,61.16
2023-01-20T04:12:14.803Z,61.05
2023-01-20T04:15:03.755Z,61.21
2023-01-20T04:17:53.872Z,61.08
2023-01-20T04:20:36.028Z,62.37
2023-01-20T04:23:40.461Z,60.87
2023-01-20T04:26:24.915Z,61.04
2023-01-20T04:29:15.784Z,59.60
2023-01-20T04:32:08.865Z,59.06
2023-01-20T04:34:57.890Z,58.30
2023-01-20T04:37:40.054Z,57.76
2023-01-20T04:40:28.868Z,58.24
2023-01-20T04:43:19.520Z,58.43
2023-01-20T04:46:03.058Z,58.27
2023-01-20T04:48:53.220Z,59.14
2023-01-20T04:51:35.883Z,57.43
2023-01-20T04:54:24.787Z,57.64
2023-01-20T04:57:07.335Z,56.54
2023-01-20T04:59:55.736Z,57.85
2023-01-20T05:02:38.256Z,57.36
2023-01-20T05:05:27.241Z,57.21
2023-01-20T05:08:09.438Z,57.63
2023-01-20T05:10:57.927Z,57.14
2023-01-20T05:13:40.355Z,56.75
2023-01-20T05:16:32.852Z,57.80
2023-01-20T05:19:15.139Z,58.66
2023-01-20T05:22:03.869Z,57.95
2023-01-20T05:24:46.331Z,57.86
2023-01-20T05:27:34.809Z,58.46
2023-01-20T05:30:18.183Z,57.51
2023-01-20T05:33:06.819Z,57.40
2023-01-20T05:35:49.345Z,57.06
2023-01-20T05:38:37.913Z,57.39
2023-01-20T05:41:21.120Z,57.37
2023-01-20T05:44:09.933Z,57.88
2023-01-20T05:46:52.225Z,56.76
2023-01-20T05:49:40.878Z,55.90
2023-01-20T05:52:23.309Z,56.77
2023-01-20T05:55:12.997Z,56.84
2023-01-20T05:58:07.749Z,55.41
2023-01-20T06:00:56.799Z,56.02
2023-01-20T06:03:39.144Z,55.55
2023-01-20T06:06:27.767Z,55.64
2023-01-20T06:09:12.031Z,55.34
2023-01-20T06:12:00.868Z,55.95
2023-01-20T06:14:43.188Z,53.75
2023-01-20T06:17:31.955Z,54.31
2023-01-20T06:20:14.201Z,54.46
2023-01-20T06:23:03.996Z,53.79
2023-01-20T06:25:46.137Z,53.60
2023-01-20T06:28:34.842Z,52.86
2023-01-20T06:31:20.440Z,52.64
2023-01-20T06:34:09.913Z,53.12
2023-01-20T06:36:52.162Z,53.04
2023-01-20T06:39:40.861Z,52.17
2023-01-20T06:42:23.433Z,52.75
2023-01-20T06:45:11.863Z,52.92
2023-01-20T06:47:58.125Z,52.62
2023-01-20T06:50:46.819Z,54.19
2023-01-20T06:53:29.127Z,53.61
2023-01-20T06:56:19.896Z,53.02
2023-01-20T06:59:15.159Z,54.17
2023-01-20T07:01:58.217Z,54.51
2023-01-20T07:04:46.892Z,55.26
2023-01-20T07:07:35.864Z,54.75
2023-01-20T07:10:25.922Z,55.47
2023-01-20T07:13:14.883Z,53.55
2023-01-20T07:16:35.002Z,55.13
2023-01-20T07:19:30.845Z,56.08
2023-01-20T07:22:19.227Z,56.86
2023-01-20T07:25:00.889Z,56.49
2023-01-20T07:27:49.865Z,56.09
2023-01-20T07:30:33.417Z,58.62
2023-01-20T07:33:21.849Z,60.44
2023-01-20T07:36:04.180Z,60.40
2023-01-20T07:38:56.905Z,61.96
2023-01-20T07:41:39.160Z,62.21
2023-01-20T07:44:30.982Z,62.41
2023-01-20T07:47:13.144Z,62.84
2023-01-20T07:50:58.829Z,62.87
2023-01-20T07:53:48.178Z,63.64
2023-01-20T07:56:43.960Z,62.89
2023-01-20T07:59:33.067Z,62.92
2023-01-20T08:02:17.978Z,62.52
2023-01-20T08:05:00.179Z,62.53
2023-01-20T08:07:48.835Z,61.17
2023-01-20T08:10:38.345Z,61.78
2023-01-20T08:13:19.952Z,61.12
2023-01-20T08:16:07.000Z,62.03
2023-01-20T08:18:56.899Z,62.44
2023-01-20T08:21:39.555Z,62.30
2023-01-20T08:24:28.789Z,60.55
2023-01-20T08:27:17.142Z,60.48
2023-01-20T08:30:01.844Z,60.65
2023-01-20T08:32:50.204Z,59.24
2023-01-20T08:35:32.883Z,59.75
2023-01-20T08:38:21.133Z,58.37
2023-01-20T08:41:03.865Z,57.29
2023-01-20T08:43:52.143Z,57.35
2023-01-20T08:46:34.902Z,59.01
2023-01-20T08:49:18.626Z,56.55
2023-01-20T08:52:07.842Z,55.43
2023-01-20T08:54:54.558Z,55.18
2023-01-20T08:57:43.918Z,55.47
2023-01-20T09:00:33.075Z,55.01
2023-01-20T09:03:14.682Z,56.33
2023-01-20T09:05:57.323Z,54.06
2023-01-20T09:08:45.841Z,55.40
2023-01-20T09:11:34.942Z,54.34
2023-01-20T09:14:17.127Z,51.90
2023-01-20T09:17:05.815Z,52.91
2023-01-20T09:19:48.255Z,52.85
2023-01-20T09:22:36.761Z,52.52
2023-01-20T09:25:19.532Z,52.08
2023-01-20T09:28:09.835Z,53.40
2023-01-20T09:30:52.263Z,53.33
2023-01-20T09:33:43.727Z,53.38
2023-01-20T09:36:28.643Z,53.89
2023-01-20T09:39:36.976Z,54.39
2023-01-20T09:42:46.520Z,53.56
2023-01-20T09:45:45.889Z,53.28
2023-01-20T09:49:11.443Z,54.84
2023-01-20T09:52:41.843Z,53.95
2023-01-20T09:55:28.074Z,53.35
2023-01-20T09:58:22.931Z,54.57
2023-01-20T10:01:36.600Z,54.83
2023-01-20T10:04:38.890Z,55.60
2023-01-20T10:07:29.492Z,55.87
2023-01-20T10:10:35.001Z,55.58
2023-01-20T10:13:41.842Z,54.86
2023-01-20T10:16:41.828Z,55.66
2023-01-20T10:19:55.933Z,57.21
2023-01-20T10:22:45.146Z,56.65
2023-01-20T10:25:41.879Z,57.37
2023-01-20T10:28:40.896Z,55.22
2023-01-20T10:31:36.201Z,56.80
2023-01-20T10:34:24.862Z,56.31
2023-01-20T10:37:18.855Z,58.72
2023-01-20T10:40:27.225Z,57.87
2023-01-20T10:43:23.840Z,58.21
2023-01-20T10:46:23.169Z,58.66
2023-01-20T10:49:47.918Z,58.63
2023-01-20T10:52:49.344Z,59.20
2023-01-20T10:56:07.150Z,59.69
2023-01-20T10:59:04.766Z,59.67
2023-01-20T11:01:59.386Z,60.68
2023-01-20T11:04:55.815Z,60.47
2023-01-20T11:07:45.180Z,61.28
2023-01-20T11:10:35.870Z,60.71
2023-01-20T11:13:18.789Z,61.63
2023-01-20T11:16:25.891Z,61.81
2023-01-20T11:19:08.789Z,62.02
2023-01-20T11:21:57.795Z,61.85
2023-01-20T11:24:47.016Z,61.90
2023-01-20T11:27:38.768Z,62.70
2023-01-20T11:30:43.831Z,63.82
2023-01-20T11:33:36.142Z,64.93
2023-01-20T11:36:31.729Z,65.27
2023-01-20T11:39:38.817Z,65.95
2023-01-20T11:42:36.723Z,65.13
2023-01-20T11:45:39.897Z,64.78
2023-01-20T11:48:22.675Z,64.32
2023-01-20T11:51:16.805Z,63.63
2023-01-20T11:54:20.180Z,64.00
2023-01-20T11:57:18.896Z,63.79
2023-01-20T12:00:07.026Z,64.08
2023-01-20T12:02:49.781Z,63.71
2023-01-20T12:05:56.581Z,64.05
2023-01-20T12:09:25.877Z,64.41
2023-01-20T12:12:35.852Z,65.03
2023-01-20T12:15:26.320Z,64.97
2023-01-20T12:18:53.348Z,65.54
2023-01-20T12:21:55.829Z,65.88
2023-01-20T12:25:16.846Z,66.16
2023-01-20T12:28:07.225Z,65.70
2023-01-20T12:31:07.120Z,65.14
2023-01-20T12:33:53.282Z,66.14
2023-01-20T12:37:17.750Z,66.38
2023-01-20T12:40:06.068Z,66.36
2023-01-20T12:43:21.807Z,66.79
2023-01-20T12:46:22.231Z,66.87
2023-01-20T12:49:16.809Z,67.79
2023-01-20T12:51:59.284Z,67.58
2023-01-20T12:54:50.790Z,67.90
2023-01-20T12:57:51.973Z,67.71
2023-01-20T13:01:17.097Z,69.36
2023-01-20T13:04:19.748Z,69.43
2023-01-20T13:07:20.830Z,69.53
2023-01-20T13:10:55.797Z,69.34
2023-01-20T13:13:59.290Z,70.08
2023-01-20T13:17:23.827Z,70.38
2023-01-20T13:20:17.146Z,69.79
2023-01-20T13:23:11.845Z,70.09
2023-01-20T13:25:55.253Z,70.16
2023-01-20T13:28:43.845Z,71.36
2023-01-20T13:31:47.871Z,71.90
2023-01-20T13:34:38.684Z,71.76
2023-01-20T13:37:51.859Z,72.91
2023-01-20T13:40:40.112Z,73.52
2023-01-20T13:43:36.837Z,72.10
2023-01-20T13:46:19.368Z,71.21
2023-01-20T13:49:36.141Z,71.55
2023-01-20T13:52:44.487Z,71.89
2023-01-20T13:56:05.854Z,70.90
2023-01-20T13:59:01.793Z,71.34
2023-01-20T14:01:50.798Z,71.81
2023-01-20T14:04:40.831Z,72.28
2023-01-20T14:07:25.767Z,73.22
2023-01-20T14:10:15.969Z,73.88
2023-01-20T14:12:58.367Z,73.54
2023-01-20T14:15:50.926Z,73.91
2023-01-20T14:18:39.867Z,73.74
2023-01-20T14:21:35.111Z,74.18
2023-01-20T14:24:35.814Z,74.13
2023-01-20T14:27:35.794Z,74.61
2023-01-20T14:30:28.804Z,74.06
2023-01-20T14:33:22.779Z,73.99
2023-01-20T14:36:08.903Z,74.02
2023-01-20T14:39:04.812Z,74.47
2023-01-20T14:41:52.967Z,74.92
2023-01-20T14:44:46.027Z,75.15
2023-01-20T14:47:28.886Z,74.84
2023-01-20T14:50:18.179Z,74.38
2023-01-20T14:53:06.834Z,74.45
2023-01-20T14:55:59.783Z,75.14
2023-01-20T14:59:02.640Z,75.38
2023-01-20T15:01:51.807Z,75.79
2023-01-20T15:04:34.118Z,75.53
2023-01-20T15:07:29.848Z,76.92
2023-01-20T15:10:21.754Z,77.10
2023-01-20T15:13:10.826Z,76.42
2023-01-20T15:15:53.233Z,76.38
2023-01-20T15:18:44.811Z,75.95
2023-01-20T15:21:42.787Z,75.65
2023-01-20T15:24:40.939Z,75.59
2023-01-20T15:27:36.774Z,76.66
2023-01-20T15:30:35.828Z,76.21
2023-01-20T15:33:18.321Z,76.42
2023-01-20T15:36:08.835Z,76.96
2023-01-20T15:38:58.698Z,76.48
2023-01-20T15:41:40.941Z,76.06
2023-01-20T15:44:31.849Z,76.05
2023-01-20T15:47:36.727Z,75.27
2023-01-20T15:50:32.591Z,75.66
2023-01-20T15:53:21.729Z,76.09
2023-01-20T15:56:04.120Z,76.08
2023-01-20T15:58:52.784Z,76.01
2023-01-20T16:01:36.022Z,75.22
2023-01-20T16:04:26.781Z,76.38
2023-01-20T16:07:08.968Z,76.18
2023-01-20T16:09:57.743Z,76.17
2023-01-20T16:12:40.231Z,76.50
2023-01-20T16:15:28.843Z,76.04
2023-01-20T16:18:12.093Z,75.68
2023-01-20T16:21:00.801Z,76.58
2023-01-20T16:23:43.059Z,77.01
2023-01-20T16:26:36.807Z,77.15
2023-01-20T16:29:19.036Z,77.49
2023-01-20T16:32:07.820Z,77.78
2023-01-20T16:34:50.553Z,78.03
2023-01-20T16:37:39.768Z,78.12
2023-01-20T16:40:32.736Z,78.57
2023-01-20T16:43:15.136Z,78.82
2023-01-20T16:46:06.811Z,78.97
2023-01-20T16:48:49.758Z,79.30
2023-01-20T16:51:38.807Z,78.51
2023-01-20T16:54:22.103Z,78.18
2023-01-20T16:57:10.725Z,78.51
2023-01-20T17:00:05.679Z,79.00
2023-01-20T17:03:00.792Z,79.25
2023-01-20T17:05:43.152Z,79.30
2023-01-20T17:08:31.799Z,79.48
2023-01-20T17:11:13.974Z,79.54
2023-01-20T17:14:03.759Z,79.30
2023-01-20T17:16:47.169Z,78.72
2023-01-20T17:19:35.891Z,79.00
2023-01-20T17:22:18.604Z,79.50
2023-01-20T17:25:07.813Z,78.79
2023-01-20T17:27:50.107Z,79.11
2023-01-20T17:30:38.799Z,78.91
2023-01-20T17:33:27.892Z,79.71
2023-01-20T17:36:18.109Z,79.36
2023-01-20T17:38:59.781Z,79.53
2023-01-20T17:41:48.092Z,79.92
2023-01-20T17:44:30.607Z,79.91
2023-01-20T17:47:20.635Z,79.67
2023-01-20T17:50:03.127Z,80.06
2023-01-20T17:52:51.717Z,79.10
2023-01-20T17:55:34.092Z,78.65
2023-01-20T17:58:28.711Z,77.66
2023-01-20T18:01:16.742Z,78.20
2023-01-20T18:04:08.725Z,78.02
2023-01-20T18:06:58.015Z,78.38
2023-01-20T18:09:42.933Z,77.87
2023-01-20T18:12:31.110Z,77.08
2023-01-20T18:15:13.699Z,77.84
2023-01-20T18:18:02.757Z,77.23
2023-01-20T18:20:45.652Z,76.71
2023-01-20T18:23:34.813Z,77.91
2023-01-20T18:26:19.446Z,78.12
2023-01-20T18:29:12.870Z,78.66
2023-01-20T18:31:55.595Z,77.92
2023-01-20T18:34:44.805Z,78.22
2023-01-20T18:37:33.906Z,77.72
2023-01-20T18:40:23.026Z,77.96
2023-01-20T18:43:05.680Z,78.01
2023-01-20T18:45:48.348Z,78.46
2023-01-20T18:48:36.783Z,78.00
2023-01-20T18:51:28.187Z,78.32
2023-01-20T18:54:13.814Z,79.36
2023-01-20T18:56:56.817Z,79.31
2023-01-20T18:59:49.963Z,79.79
2023-01-20T19:02:32.189Z,79.68
2023-01-20T19:05:21.701Z,79.30
2023-01-20T19:08:10.883Z,79.51
2023-01-20T19:10:53.278Z,80.33
2023-01-20T19:13:41.842Z,80.99
2023-01-20T19:16:26.624Z,82.23
2023-01-20T19:19:15.707Z,82.32
2023-01-20T19:21:59.176Z,82.42
2023-01-20T19:24:47.861Z,82.87
2023-01-20T19:27:30.247Z,83.24
2023-01-20T19:30:19.705Z,82.70
2023-01-20T19:33:02.165Z,83.11
2023-01-20T19:35:50.720Z,83.51
2023-01-20T19:38:34.021Z,83.18
2023-01-20T19:41:25.776Z,83.49
2023-01-20T19:44:10.073Z,83.86
2023-01-20T19:46:58.832Z,83.26
2023-01-20T19:49:41.376Z,83.45
2023-01-20T19:52:30.687Z,83.67
2023-01-20T19:55:13.614Z,83.56
2023-01-20T19:58:02.786Z,84.43
2023-01-20T20:00:57.638Z,84.39
2023-01-20T20:03:46.680Z,84.42
2023-01-20T20:06:40.260Z,84.36
2023-01-20T20:09:30.782Z,85.18
2023-01-20T20:12:13.243Z,84.98
2023-01-20T20:15:02.753Z,84.92
2023-01-20T20:17:45.261Z,84.86
2023-01-20T20:20:33.739Z,85.63
2023-01-20T20:23:16.092Z,85.29
2023-01-20T20:26:04.715Z,85.19
2023-01-20T20:28:47.027Z,85.51
2023-01-20T20:31:38.808Z,85.78
2023-01-20T20:34:23.986Z,85.42
2023-01-20T20:37:12.701Z,85.57
2023-01-20T20:39:55.017Z,85.71
2023-01-20T20:42:43.780Z,85.53
2023-01-20T20:45:26.839Z,85.84
2023-01-20T20:48:17.664Z,85.60
2023-01-20T20:51:00.241Z,85.81
2023-01-20T20:53:49.749Z,85.76
2023-01-20T20:56:33.034Z,85.02
2023-01-20T20:59:21.705Z,85.42
2023-01-20T21:02:04.168Z,84.84
2023-01-20T21:04:53.656Z,85.21
2023-01-20T21:07:35.958Z,85.49
2023-01-20T21:10:24.722Z,85.13
2023-01-20T21:13:15.755Z,85.11
2023-01-20T21:16:14.862Z,84.99
2023-01-20T21:18:58.701Z,85.32
2023-01-20T21:21:47.737Z,85.68
2023-01-20T21:24:31.036Z,85.02
2023-01-20T21:27:19.694Z,84.99
2023-01-20T21:30:08.714Z,84.79
2023-01-20T21:32:57.022Z,85.34
2023-01-20T21:35:40.119Z,85.13
2023-01-20T21:38:24.648Z,85.23
2023-01-20T21:41:21.774Z,85.32
2023-01-20T21:44:28.146Z,84.86
2023-01-20T21:47:18.661Z,85.73
2023-01-20T21:50:19.153Z,84.54
2023-01-20T21:53:07.695Z,85.37
2023-01-20T21:55:50.045Z,84.57
2023-01-20T21:58:38.728Z,84.79
2023-01-20T22:01:20.885Z,84.61
2023-01-20T22:04:09.691Z,85.21
2023-01-20T22:06:58.059Z,84.64
2023-01-20T22:09:39.832Z,85.24
2023-01-20T22:12:21.830Z,84.84
2023-01-20T22:15:12.643Z,84.06
2023-01-20T22:18:01.712Z,84.16
2023-01-20T22:20:44.076Z,83.99
2023-01-20T22:23:32.672Z,83.79
2023-01-20T22:26:15.022Z,83.88
2023-01-20T22:29:03.671Z,82.90
2023-01-20T22:31:46.042Z,82.51
2023-01-20T22:34:34.733Z,83.23
2023-01-20T22:37:16.969Z,83.65
2023-01-20T22:40:05.699Z,83.61
2023-01-20T22:42:47.943Z,83.43
2023-01-20T22:45:36.786Z,82.33
2023-01-20T22:48:19.037Z,82.98
2023-01-20T22:51:19.775Z,82.58
2023-01-20T22:54:10.819Z,82.45
2023-01-20T22:56:59.672Z,83.12
2023-01-20T22:59:54.555Z,82.95
2023-01-20T23:02:46.666Z,82.54
2023-01-20T23:05:28.983Z,83.18
2023-01-20T23:08:17.720Z,83.64
2023-01-20T23:11:07.927Z,82.88
2023-01-20T23:13:56.715Z,82.86
2023-01-20T23:16:39.018Z,83.06
2023-01-20T23:19:27.733Z,83.37
2023-01-20T23:22:09.967Z,83.34
2023-01-20T23:24:58.652Z,83.12
2023-01-20T23:27:40.943Z,84.22
2023-01-20T23:30:29.639Z,83.53
2023-01-20T23:33:19.682Z,82.73
2023-01-20T23:36:25.784Z,82.31
2023-01-20T23:39:14.685Z,82.83
2023-01-20T23:42:04.723Z,81.92
2023-01-20T23:44:47.030Z,82.10
2023-01-20T23:47:35.727Z,82.68
2023-01-20T23:50:25.628Z,82.99
2023-01-20T23:53:14.004Z,83.36
2023-01-20T23:55:56.683Z,81.93
2023-01-20T23:58:51.604Z,81.68
